createdAt,value
2018-11-22T00:00:02.252Z,33.47
2018-11-22T00:03:02.143Z,35.47
2018-11-22T00:06:01.958Z,33.80
2018-11-22T00:09:01.513Z,36.17
2018-11-22T00:12:01.062Z,34.23
2018-11-22T00:15:00.687Z,32.60
2018-11-22T00:18:00.566Z,33.53
2018-11-22T00:21:00.218Z,33.33
2018-11-22T00:24:00.429Z,34.73
2018-11-22T00:27:00.377Z,31.30
2018-11-22T00:30:00.472Z,36.10
2018-11-22T00:33:00.251Z,36.40
2018-11-22T00:36:00.468Z,37.47
2018-11-22T00:39:00.218Z,34.07
2018-11-22T00:42:00.083Z,37.97
2018-11-22T00:45:00.066Z,35.33
2018-11-22T00:48:00.261Z,35.43
2018-11-22T00:51:00.146Z,36.33
2018-11-22T00:54:00.129Z,38.73
2018-11-22T00:57:00.073Z,36.80
2018-11-22T01:00:00.413Z,35.03
2018-11-22T01:03:00.062Z,36.77
2018-11-22T01:05:59.926Z,38.83
2018-11-22T01:08:59.968Z,34.13
2018-11-22T01:12:00.268Z,37.13
2018-11-22T01:15:00.193Z,38.27
2018-11-22T01:17:59.606Z,37.73
2018-11-22T01:20:59.111Z,38.47
2018-11-22T01:23:59.036Z,36.07
2018-11-22T01:26:58.982Z,40.77
2018-11-22T01:29:58.775Z,39.43
2018-11-22T01:32:58.807Z,37.93
2018-11-22T01:35:58.843Z,37.80
2018-11-22T01:38:58.836Z,40.70
2018-11-22T01:41:58.712Z,38.70
2018-11-22T01:44:58.193Z,38.50
2018-11-22T01:47:58.102Z,37.43
2018-11-22T01:50:57.758Z,41.53
2018-11-22T01:53:57.183Z,38.00
2018-11-22T01:56:56.596Z,40.33
2018-11-22T01:59:56.762Z,39.77
2018-11-22T02:02:56.695Z,42.83
2018-11-22T02:05:56.814Z,41.93
2018-11-22T02:08:56.541Z,40.27
2018-11-22T02:11:56.359Z,40.17
2018-11-22T02:14:56.642Z,39.60
2018-11-22T02:17:56.123Z,36.73
2018-11-22T02:20:56.167Z,42.00
2018-11-22T02:23:56.053Z,40.90
2018-11-22T02:26:55.693Z,42.67
2018-11-22T02:29:55.722Z,42.10
2018-11-22T02:32:56.828Z,44.23
2018-11-22T02:35:56.442Z,41.60
2018-11-22T02:38:56.607Z,43.07
2018-11-22T02:41:56.672Z,42.13
2018-11-22T02:44:56.446Z,43.77
2018-11-22T02:47:56.342Z,43.77
2018-11-22T02:50:55.976Z,40.83
2018-11-22T02:53:55.722Z,41.70
2018-11-22T02:56:55.567Z,41.37
2018-11-22T02:59:55.323Z,39.77
2018-11-22T03:02:55.518Z,42.60
2018-11-22T03:05:55.202Z,40.63
2018-11-22T03:08:55.131Z,40.43
2018-11-22T03:11:55.414Z,37.97
2018-11-22T03:14:55.023Z,41.67
2018-11-22T03:17:55.017Z,41.73
2018-11-22T03:20:54.466Z,37.70
2018-11-22T03:23:54.331Z,38.63
2018-11-22T03:26:54.293Z,41.33
2018-11-22T03:29:54.211Z,37.17
2018-11-22T03:32:54.023Z,39.60
2018-11-22T03:35:53.767Z,40.10
2018-11-22T03:38:53.997Z,36.17
2018-11-22T03:41:53.954Z,36.53
2018-11-22T03:44:54.097Z,36.30
2018-11-22T03:47:54.204Z,35.53
2018-11-22T03:50:54.359Z,36.90
2018-11-22T03:53:54.292Z,37.33
2018-11-22T03:56:53.771Z,33.60
2018-11-22T03:59:54.166Z,34.67
2018-11-22T04:02:54.282Z,32.23
2018-11-22T04:05:53.999Z,30.83
2018-11-22T04:08:54.091Z,31.43
2018-11-22T04:11:53.966Z,31.87
2018-11-22T04:14:53.725Z,33.77
2018-11-22T04:17:53.584Z,29.40
2018-11-22T04:20:53.506Z,30.37
2018-11-22T04:23:53.330Z,33.93
2018-11-22T04:26:52.801Z,30.87
2018-11-22T04:29:52.437Z,29.47
2018-11-22T04:32:52.702Z,32.23
2018-11-22T04:35:52.369Z,29.93
2018-11-22T04:38:52.401Z,30.37
2018-11-22T04:41:52.334Z,32.20
2018-11-22T04:44:52.380Z,32.60
2018-11-22T04:47:53.941Z,31.17
2018-11-22T04:50:53.721Z,29.00
2018-11-22T04:53:53.491Z,30.97
2018-11-22T04:56:53.279Z,31.07
2018-11-22T04:59:53.131Z,29.50
2018-11-22T05:02:53.048Z,29.47
2018-11-22T05:05:53.107Z,29.03
2018-11-22T05:08:53.159Z,28.93
2018-11-22T05:11:52.991Z,28.73
2018-11-22T05:14:52.675Z,30.33
2018-11-22T05:17:52.712Z,30.87
2018-11-22T05:20:53.142Z,31.00
2018-11-22T05:23:53.007Z,31.90
2018-11-22T05:26:52.752Z,28.00
2018-11-22T05:29:52.466Z,29.93
2018-11-22T05:32:52.381Z,32.00
2018-11-22T05:35:51.802Z,30.83
2018-11-22T05:38:51.922Z,30.10
2018-11-22T05:41:51.800Z,30.20
2018-11-22T05:44:51.702Z,30.93
2018-11-22T05:47:51.517Z,29.87
2018-11-22T05:50:51.142Z,29.77
2018-11-22T05:53:50.947Z,29.67
2018-11-22T05:56:50.728Z,29.73
2018-11-22T05:59:50.493Z,29.47
2018-11-22T06:02:50.751Z,29.73
2018-11-22T06:05:50.518Z,29.80
2018-11-22T06:08:50.706Z,28.00
2018-11-22T06:11:50.733Z,28.40
2018-11-22T06:14:50.387Z,30.07
2018-11-22T06:17:38.547Z,27.37
2018-11-22T06:20:45.298Z,28.67
2018-11-22T06:23:45.097Z,28.53
2018-11-22T06:26:45.238Z,28.30
2018-11-22T12:17:12.176Z,22.50
2018-11-22T12:19:46.281Z,22.93
2018-11-22T12:22:20.285Z,22.83
2018-11-22T12:24:54.337Z,25.57
2018-11-22T12:27:28.060Z,22.53
2018-11-22T12:30:02.066Z,23.13
2018-11-22T12:32:40.617Z,20.43
2018-11-22T12:35:20.387Z,19.90
2018-11-22T12:37:59.930Z,22.33
2018-11-22T12:40:33.730Z,22.67
2018-11-22T12:43:08.137Z,22.47
2018-11-22T12:45:42.157Z,19.93
2018-11-22T12:48:16.165Z,23.30
2018-11-22T12:50:50.155Z,21.87
2018-11-22T12:53:24.002Z,20.50
2018-11-22T12:55:58.377Z,23.60
2018-11-22T12:58:32.261Z,22.00
2018-11-22T13:01:06.440Z,20.83
2018-11-22T13:03:40.413Z,24.73
2018-11-22T13:06:14.421Z,23.73
2018-11-22T13:08:48.746Z,22.60
2018-11-22T13:11:22.863Z,23.70
2018-11-22T13:13:56.657Z,20.50
2018-11-22T13:16:31.180Z,23.30
2018-11-22T13:19:04.976Z,21.77
2018-11-22T13:21:39.039Z,20.97
2018-11-22T13:24:13.375Z,19.20
2018-11-22T13:26:47.288Z,20.30
2018-11-22T13:29:21.415Z,21.53
2018-11-22T13:31:55.781Z,21.37
2018-11-22T13:34:29.981Z,19.73
2018-11-22T13:37:04.222Z,20.00
2018-11-22T13:39:38.281Z,19.80
2018-11-22T13:42:12.856Z,19.40
2018-11-22T13:44:46.831Z,20.30
2018-11-22T13:47:20.941Z,20.00
2018-11-22T13:49:54.835Z,21.13
2018-11-22T13:52:29.090Z,19.77
2018-11-22T13:55:03.438Z,19.90
2018-11-22T13:57:37.736Z,21.70
2018-11-22T14:00:18.293Z,18.97
2018-11-22T14:02:53.659Z,18.73
2018-11-22T14:05:27.814Z,20.87
2018-11-22T14:08:02.258Z,19.97
2018-11-22T14:10:36.396Z,21.03
2018-11-22T14:13:10.420Z,20.00
2018-11-22T14:15:44.367Z,20.43
2018-11-22T14:18:18.420Z,21.90
2018-11-22T14:20:52.430Z,20.93
2018-11-22T14:23:26.520Z,20.20
2018-11-22T14:26:00.560Z,20.10
2018-11-22T14:28:34.711Z,19.87
2018-11-22T14:31:08.813Z,21.57
2018-11-22T14:33:42.711Z,20.10
2018-11-22T14:36:17.426Z,20.37
2018-11-22T14:38:51.133Z,19.73
2018-11-22T14:41:25.148Z,19.80
2018-11-22T14:43:58.912Z,19.63
2018-11-22T14:46:33.101Z,19.60
2018-11-22T14:49:07.191Z,20.53
2018-11-22T14:51:44.097Z,19.30
2018-11-22T14:54:18.586Z,19.67
2018-11-22T14:56:52.881Z,19.57
2018-11-22T14:59:26.866Z,21.87
2018-11-22T15:02:00.897Z,18.47
2018-11-22T15:04:34.867Z,19.73
2018-11-22T15:07:08.892Z,22.10
2018-11-22T15:09:42.785Z,19.13
2018-11-22T15:12:16.956Z,20.20
2018-11-22T15:14:51.057Z,21.90
2018-11-22T15:17:25.195Z,20.83
2018-11-22T15:19:59.817Z,19.43
2018-11-22T15:22:33.753Z,21.60
2018-11-22T15:25:10.525Z,19.20
2018-11-22T15:27:44.987Z,23.30
2018-11-22T15:30:20.736Z,19.30
2018-11-22T15:32:55.221Z,20.97
2018-11-22T15:35:30.235Z,22.50
2018-11-22T15:38:04.788Z,21.90
2018-11-22T15:40:38.839Z,21.17
2018-11-22T15:43:12.847Z,23.37
2018-11-22T15:45:46.967Z,21.93
2018-11-22T15:48:21.762Z,20.50
2018-11-22T15:50:55.857Z,21.10
2018-11-22T15:53:29.922Z,20.00
2018-11-22T15:56:04.025Z,30.97
2018-11-22T15:58:38.190Z,23.63
2018-11-22T16:01:12.291Z,21.27
2018-11-22T16:03:46.616Z,21.83
2018-11-22T16:06:21.369Z,21.50
2018-11-22T16:08:54.676Z,21.17
2018-11-22T16:11:29.081Z,21.73
2018-11-22T16:14:03.410Z,23.13
2018-11-22T16:16:37.550Z,23.37
2018-11-22T16:19:11.617Z,19.07
2018-11-22T16:21:45.495Z,21.47
2018-11-22T16:24:19.680Z,23.90
2018-11-22T16:26:53.634Z,22.63
2018-11-22T16:29:28.743Z,21.13
2018-11-22T16:32:03.552Z,21.53
2018-11-22T16:34:37.700Z,21.03
2018-11-22T16:37:11.865Z,21.50
2018-11-22T16:39:47.832Z,19.83
2018-11-22T16:42:21.017Z,21.23
2018-11-22T16:44:54.960Z,23.07
2018-11-22T16:47:29.322Z,22.43
2018-11-22T16:50:03.785Z,19.37
2018-11-22T16:52:37.796Z,24.97
2018-11-22T16:55:12.409Z,22.23
2018-11-22T16:57:47.789Z,19.70
2018-11-22T17:00:24.359Z,19.67
2018-11-22T17:02:59.807Z,20.70
2018-11-22T17:05:34.404Z,19.33
2018-11-22T17:08:09.143Z,20.27
2018-11-22T17:10:43.565Z,23.60
2018-11-22T17:13:17.579Z,20.77
2018-11-22T17:15:51.616Z,20.37
2018-11-22T17:18:32.699Z,19.07
2018-11-22T17:21:07.390Z,19.17
2018-11-22T17:23:41.314Z,19.97
2018-11-22T17:26:15.331Z,23.33
2018-11-22T17:28:49.417Z,20.87
2018-11-22T17:31:23.341Z,20.43
2018-11-22T17:33:57.561Z,20.47
2018-11-22T17:36:31.630Z,20.67
2018-11-22T17:39:09.938Z,22.07
2018-11-22T17:41:44.039Z,22.43
2018-11-22T17:44:18.195Z,20.23
2018-11-22T17:46:52.219Z,20.40
2018-11-22T17:49:26.416Z,20.70
2018-11-22T17:52:00.473Z,21.20
2018-11-22T17:54:34.989Z,20.43
2018-11-22T17:57:09.030Z,20.53
2018-11-22T17:59:50.034Z,22.23
2018-11-22T18:02:24.290Z,22.47
2018-11-22T18:04:58.379Z,20.53
2018-11-22T18:07:32.504Z,22.40
2018-11-22T18:10:08.334Z,22.87
2018-11-22T18:12:43.773Z,21.63
2018-11-22T18:15:19.023Z,22.80
2018-11-22T18:17:54.075Z,22.83
2018-11-22T18:20:29.619Z,21.80
2018-11-22T18:23:03.854Z,21.60
2018-11-22T18:25:38.120Z,20.93
2018-11-22T18:28:12.065Z,21.80
2018-11-22T18:30:46.487Z,19.10
2018-11-22T18:33:20.622Z,23.67
2018-11-22T18:35:54.761Z,24.00
2018-11-22T18:38:28.786Z,23.87
2018-11-22T18:41:02.999Z,24.27
2018-11-22T18:43:37.042Z,22.50
2018-11-22T18:46:11.453Z,22.07
2018-11-22T18:48:45.610Z,21.97
2018-11-22T18:51:19.675Z,22.63
2018-11-22T18:53:54.069Z,22.97
2018-11-22T18:56:27.903Z,20.90
2018-11-22T18:59:01.922Z,20.80
2018-11-22T19:01:35.928Z,22.57
2018-11-22T19:04:10.132Z,22.73
2018-11-22T19:06:44.346Z,20.43
2018-11-22T19:09:18.155Z,20.70
2018-11-22T19:11:52.168Z,21.00
2018-11-22T19:14:26.350Z,20.80
2018-11-22T19:17:00.538Z,22.20
2018-11-22T19:19:34.727Z,23.73
2018-11-22T19:22:08.488Z,22.57
2018-11-22T19:24:42.804Z,19.30
2018-11-22T19:27:17.824Z,20.63
2018-11-22T19:29:51.825Z,20.60
2018-11-22T19:32:25.808Z,21.03
2018-11-22T19:34:59.826Z,20.30
2018-11-22T19:37:34.029Z,21.23
2018-11-22T19:40:11.708Z,21.17
2018-11-22T19:42:47.160Z,21.30
2018-11-22T19:45:22.710Z,20.27
2018-11-22T19:47:56.867Z,20.30
2018-11-22T19:50:31.424Z,22.80
2018-11-22T19:53:07.165Z,24.20
2018-11-22T19:55:41.581Z,24.83
2018-11-22T19:58:16.360Z,26.77
2018-11-22T20:00:50.384Z,24.23
2018-11-22T20:03:24.311Z,25.53
2018-11-22T20:05:58.499Z,21.00
2018-11-22T20:08:33.529Z,20.60
2018-11-22T20:11:07.622Z,19.30
2018-11-22T20:13:41.960Z,20.47
2018-11-22T20:16:16.335Z,20.90
2018-11-22T20:18:50.360Z,19.67
2018-11-22T20:21:31.320Z,22.30
2018-11-22T20:24:05.494Z,21.63
2018-11-22T20:26:39.585Z,23.87
2018-11-22T20:29:13.809Z,21.30
2018-11-22T20:31:48.320Z,23.97
2018-11-22T20:34:22.781Z,22.60
2018-11-22T20:36:56.855Z,23.67
2018-11-22T20:39:31.445Z,21.67
2018-11-22T20:42:05.706Z,20.03
2018-11-22T20:44:39.694Z,22.10
2018-11-22T20:47:14.380Z,22.93
2018-11-22T20:49:48.944Z,23.23
2018-11-22T20:52:23.061Z,22.70
2018-11-22T20:54:57.504Z,22.50
2018-11-22T20:57:31.882Z,20.90
2018-11-22T21:00:12.912Z,21.50
2018-11-22T21:02:47.024Z,22.07
2018-11-22T21:05:21.964Z,21.10
2018-11-22T21:07:56.273Z,21.13
2018-11-22T21:10:31.459Z,23.97
2018-11-22T21:13:05.692Z,20.87
2018-11-22T21:15:39.676Z,23.30
2018-11-22T21:18:14.231Z,21.20
2018-11-22T21:20:48.489Z,21.27
2018-11-22T21:23:22.779Z,22.47
2018-11-22T21:25:56.678Z,21.30
2018-11-22T21:28:30.669Z,24.10
2018-11-22T21:31:04.730Z,25.20
2018-11-22T21:33:38.815Z,21.43
2018-11-22T21:36:12.824Z,22.07
2018-11-22T21:38:47.016Z,22.73
2018-11-22T21:41:21.367Z,21.77
2018-11-22T21:43:55.754Z,24.63
2018-11-22T21:46:31.123Z,23.03
2018-11-22T21:49:05.324Z,21.90
2018-11-22T21:51:39.676Z,23.70
2018-11-22T21:54:13.468Z,22.57
2018-11-22T21:56:47.674Z,21.47
2018-11-22T21:59:22.254Z,23.80
2018-11-22T22:01:56.656Z,22.20
2018-11-22T22:04:30.818Z,22.43
2018-11-22T22:07:05.214Z,21.20
2018-11-22T22:09:39.295Z,22.70
2018-11-22T22:12:13.270Z,21.63
2018-11-22T22:14:47.509Z,22.30
2018-11-22T22:17:21.572Z,23.20
2018-11-22T22:19:55.963Z,22.13
2018-11-22T22:22:30.452Z,23.40
2018-11-22T22:25:05.604Z,21.90
2018-11-22T22:27:40.306Z,23.77
2018-11-22T22:30:18.763Z,25.43
2018-11-22T22:32:54.046Z,26.90
2018-11-22T22:35:29.324Z,25.43
2018-11-22T22:38:03.469Z,23.97
2018-11-22T22:40:37.894Z,23.37
2018-11-22T22:43:11.939Z,24.43
2018-11-22T22:45:46.148Z,24.13
2018-11-22T22:48:19.988Z,24.43
2018-11-22T22:50:54.114Z,22.87
2018-11-22T22:53:28.444Z,25.30
2018-11-22T22:56:02.433Z,24.13
2018-11-22T22:58:36.593Z,25.87
2018-11-22T23:01:10.760Z,25.90
2018-11-22T23:03:44.993Z,25.27
2018-11-22T23:06:19.345Z,25.93
2018-11-22T23:08:53.144Z,24.97
2018-11-22T23:11:29.696Z,25.10
2018-11-22T23:14:03.708Z,26.63
2018-11-22T23:16:37.863Z,25.57
2018-11-22T23:19:12.297Z,27.10
2018-11-22T23:21:46.579Z,25.33
2018-11-22T23:24:20.320Z,25.53
2018-11-22T23:26:54.338Z,25.83
2018-11-22T23:29:28.254Z,26.77
2018-11-22T23:32:02.790Z,25.87
2018-11-22T23:34:36.847Z,25.80
2018-11-22T23:37:10.658Z,27.53
2018-11-22T23:39:44.687Z,28.13
2018-11-22T23:42:18.805Z,26.73
2018-11-22T23:44:52.831Z,27.67
2018-11-22T23:47:26.899Z,28.70
2018-11-22T23:50:01.340Z,28.97
2018-11-22T23:52:35.260Z,27.63
2018-11-22T23:55:09.479Z,29.13
2018-11-22T23:57:43.679Z,29.20
